sensor_id;sensor_type;location;lat;lon;timestamp;temperature;humidity
8043;DHT22;4064;48.132;11.366;2022-11-15T00:01:46;3.70;99.90
8043;DHT22;4064;48.132;11.366;2022-11-15T00:04:12;3.70;99.90
8043;DHT22;4064;48.132;11.366;2022-11-15T00:06:37;3.60;99.90
8043;DHT22;4064;48.132;11.366;2022-11-15T00:09:03;3.60;99.90
8043;DHT22;4064;48.132;11.366;2022-11-15T00:11:29;3.60;99.90
8043;DHT22;4064;48.132;11.366;2022-11-15T00:13:56;3.50;99.90
8043;DHT22;4064;48.132;11.366;2022-11-15T00:16:22;3.40;99.90
8043;DHT22;4064;48.132;11.366;2022-11-15T00:18:48;3.40;99.90
8043;DHT22;4064;48.132;11.366;2022-11-15T00:21:14;3.30;99.90
8043;DHT22;4064;48.132;11.366;2022-11-15T00:23:40;3.40;99.90
8043;DHT22;4064;48.132;11.366;2022-11-15T00:26:07;3.40;99.90
8043;DHT22;4064;48.132;11.366;2022-11-15T00:28:33;3.40;99.90
8043;DHT22;4064;48.132;11.366;2022-11-15T00:31:03;3.40;99.90
8043;DHT22;4064;48.132;11.366;2022-11-15T00:33:29;3.30;99.90
8043;DHT22;4064;48.132;11.366;2022-11-15T00:36:08;3.20;99.90
8043;DHT22;4064;48.132;11.366;2022-11-15T00:38:36;3.20;99.90
8043;DHT22;4064;48.132;11.366;2022-11-15T00:41:04;3.20;99.90
8043;DHT22;4064;48.132;11.366;2022-11-15T00:43:30;3.20;99.90
8043;DHT22;4064;48.132;11.366;2022-11-15T00:45:56;3.20;99.90
8043;DHT22;4064;48.132;11.366;2022-11-15T00:48:22;3.20;99.90
8043;DHT22;4064;48.132;11.366;2022-11-15T00:50:48;3.10;99.90
8043;DHT22;4064;48.132;11.366;2022-11-15T00:53:14;3.10;99.90
8043;DHT22;4064;48.132;11.366;2022-11-15T00:55:39;3.10;99.90
8043;DHT22;4064;48.132;11.366;2022-11-15T00:58:05;3.10;99.90
8043;DHT22;4064;48.132;11.366;2022-11-15T01:00:30;3.00;99.90
8043;DHT22;4064;48.132;11.366;2022-11-15T01:02:56;2.90;99.90
8043;DHT22;4064;48.132;11.366;2022-11-15T01:05:22;2.90;99.90
8043;DHT22;4064;48.132;11.366;2022-11-15T01:07:51;3.00;99.90
8043;DHT22;4064;48.132;11.366;2022-11-15T01:10:17;2.90;99.90
8043;DHT22;4064;48.132;11.366;2022-11-15T01:12:43;2.90;99.90
8043;DHT22;4064;48.132;11.366;2022-11-15T01:15:09;2.90;99.90
8043;DHT22;4064;48.132;11.366;2022-11-15T01:17:34;2.90;99.90
8043;DHT22;4064;48.132;11.366;2022-11-15T01:20:00;2.90;99.90
8043;DHT22;4064;48.132;11.366;2022-11-15T01:22:26;2.90;99.90
8043;DHT22;4064;48.132;11.366;2022-11-15T01:24:51;2.90;99.90
8043;DHT22;4064;48.132;11.366;2022-11-15T01:27:17;2.90;99.90
8043;DHT22;4064;48.132;11.366;2022-11-15T01:29:42;2.90;99.90
8043;DHT22;4064;48.132;11.366;2022-11-15T01:32:08;2.90;99.90
8043;DHT22;4064;48.132;11.366;2022-11-15T01:34:34;2.90;99.90
8043;DHT22;4064;48.132;11.366;2022-11-15T01:36:59;3.00;99.90
8043;DHT22;4064;48.132;11.366;2022-11-15T01:39:25;2.90;99.90
8043;DHT22;4064;48.132;11.366;2022-11-15T01:41:51;3.00;99.90
8043;DHT22;4064;48.132;11.366;2022-11-15T01:44:49;3.00;99.90
8043;DHT22;4064;48.132;11.366;2022-11-15T01:50:10;3.00;99.90
8043;DHT22;4064;48.132;11.366;2022-11-15T01:52:38;2.90;99.90
8043;DHT22;4064;48.132;11.366;2022-11-15T01:55:09;2.90;99.90
8043;DHT22;4064;48.132;11.366;2022-11-15T01:57:37;2.90;99.90
8043;DHT22;4064;48.132;11.366;2022-11-15T02:00:05;2.90;99.90
8043;DHT22;4064;48.132;11.366;2022-11-15T02:02:32;2.90;99.90
8043;DHT22;4064;48.132;11.366;2022-11-15T02:04:58;2.90;99.90
8043;DHT22;4064;48.132;11.366;2022-11-15T02:07:24;2.80;99.90
8043;DHT22;4064;48.132;11.366;2022-11-15T02:09:50;2.70;99.90
8043;DHT22;4064;48.132;11.366;2022-11-15T02:12:19;2.70;99.90
8043;DHT22;4064;48.132;11.366;2022-11-15T02:14:52;2.70;99.90
8043;DHT22;4064;48.132;11.366;2022-11-15T02:23:31;2.60;99.90
8043;DHT22;4064;48.132;11.366;2022-11-15T02:31:36;2.60;99.90
8043;DHT22;4064;48.132;11.366;2022-11-15T02:34:28;2.50;99.90
8043;DHT22;4064;48.132;11.366;2022-11-15T02:37:16;2.40;99.90
8043;DHT22;4064;48.132;11.366;2022-11-15T02:40:07;2.40;99.90
8043;DHT22;4064;48.132;11.366;2022-11-15T02:42:41;2.40;99.90
8043;DHT22;4064;48.132;11.366;2022-11-15T02:45:35;2.40;99.90
8043;DHT22;4064;48.132;11.366;2022-11-15T02:48:03;2.40;99.90
8043;DHT22;4064;48.132;11.366;2022-11-15T02:50:32;2.40;99.90
8043;DHT22;4064;48.132;11.366;2022-11-15T02:52:58;2.30;99.90
8043;DHT22;4064;48.132;11.366;2022-11-15T02:55:38;2.20;99.90
8043;DHT22;4064;48.132;11.366;2022-11-15T03:01:23;2.20;99.90
8043;DHT22;4064;48.132;11.366;2022-11-15T03:04:49;2.30;99.90
8043;DHT22;4064;48.132;11.366;2022-11-15T03:06:54;2.30;99.90
8043;DHT22;4064;48.132;11.366;2022-11-15T03:09:43;2.20;99.90
8043;DHT22;4064;48.132;11.366;2022-11-15T03:14:57;2.10;99.90
8043;DHT22;4064;48.132;11.366;2022-11-15T03:17:38;2.10;99.90
8043;DHT22;4064;48.132;11.366;2022-11-15T03:20:06;2.00;99.90
8043;DHT22;4064;48.132;11.366;2022-11-15T03:22:39;2.10;99.90
8043;DHT22;4064;48.132;11.366;2022-11-15T03:25:09;2.10;99.90
8043;DHT22;4064;48.132;11.366;2022-11-15T03:27:39;2.00;99.90
8043;DHT22;4064;48.132;11.366;2022-11-15T03:30:07;2.00;99.90
8043;DHT22;4064;48.132;11.366;2022-11-15T03:32:51;2.00;99.90
8043;DHT22;4064;48.132;11.366;2022-11-15T03:35:21;2.00;99.90
8043;DHT22;4064;48.132;11.366;2022-11-15T03:38:00;1.90;99.90
8043;DHT22;4064;48.132;11.366;2022-11-15T03:40:39;1.90;99.90
8043;DHT22;4064;48.132;11.366;2022-11-15T03:43:36;1.90;99.90
8043;DHT22;4064;48.132;11.366;2022-11-15T03:46:14;2.00;99.90
8043;DHT22;4064;48.132;11.366;2022-11-15T03:48:46;2.00;99.90
8043;DHT22;4064;48.132;11.366;2022-11-15T03:51:15;2.00;99.90
8043;DHT22;4064;48.132;11.366;2022-11-15T03:53:41;1.90;99.90
8043;DHT22;4064;48.132;11.366;2022-11-15T03:56:07;1.90;99.90
8043;DHT22;4064;48.132;11.366;2022-11-15T03:58:32;1.90;99.90
8043;DHT22;4064;48.132;11.366;2022-11-15T04:00:58;1.90;99.90
8043;DHT22;4064;48.132;11.366;2022-11-15T04:03:24;1.80;99.90
8043;DHT22;4064;48.132;11.366;2022-11-15T04:05:50;1.80;99.90
8043;DHT22;4064;48.132;11.366;2022-11-15T04:08:16;1.80;99.90
8043;DHT22;4064;48.132;11.366;2022-11-15T04:10:41;1.80;99.90
8043;DHT22;4064;48.132;11.366;2022-11-15T04:13:07;1.80;99.90
8043;DHT22;4064;48.132;11.366;2022-11-15T04:15:33;1.80;99.90
8043;DHT22;4064;48.132;11.366;2022-11-15T04:17:59;1.70;99.90
8043;DHT22;4064;48.132;11.366;2022-11-15T04:20:27;1.70;99.90
8043;DHT22;4064;48.132;11.366;2022-11-15T04:23:16;1.70;99.90
8043;DHT22;4064;48.132;11.366;2022-11-15T04:26:05;1.70;99.90
8043;DHT22;4064;48.132;11.366;2022-11-15T04:28:32;1.70;99.90
8043;DHT22;4064;48.132;11.366;2022-11-15T04:30:58;1.70;99.90
8043;DHT22;4064;48.132;11.366;2022-11-15T04:33:24;1.80;99.90
8043;DHT22;4064;48.132;11.366;2022-11-15T04:35:50;1.70;99.90
8043;DHT22;4064;48.132;11.366;2022-11-15T04:38:35;1.70;99.90
8043;DHT22;4064;48.132;11.366;2022-11-15T04:41:01;1.50;99.90
8043;DHT22;4064;48.132;11.366;2022-11-15T04:43:27;1.50;99.90
8043;DHT22;4064;48.132;11.366;2022-11-15T04:45:53;1.50;99.90
8043;DHT22;4064;48.132;11.366;2022-11-15T04:48:19;1.50;99.90
8043;DHT22;4064;48.132;11.366;2022-11-15T04:50:47;1.40;99.90
8043;DHT22;4064;48.132;11.366;2022-11-15T04:53:12;1.40;99.90
8043;DHT22;4064;48.132;11.366;2022-11-15T04:55:38;1.40;99.90
8043;DHT22;4064;48.132;11.366;2022-11-15T04:58:04;1.40;99.90
8043;DHT22;4064;48.132;11.366;2022-11-15T05:00:30;1.40;99.90
8043;DHT22;4064;48.132;11.366;2022-11-15T05:02:56;1.40;99.90
8043;DHT22;4064;48.132;11.366;2022-11-15T05:05:40;1.50;99.90
8043;DHT22;4064;48.132;11.366;2022-11-15T05:08:06;1.50;99.90
8043;DHT22;4064;48.132;11.366;2022-11-15T05:10:32;1.60;99.90
8043;DHT22;4064;48.132;11.366;2022-11-15T05:12:57;1.50;99.90
8043;DHT22;4064;48.132;11.366;2022-11-15T05:15:23;1.50;99.90
8043;DHT22;4064;48.132;11.366;2022-11-15T05:17:49;1.50;99.90
8043;DHT22;4064;48.132;11.366;2022-11-15T05:20:14;1.50;99.90
8043;DHT22;4064;48.132;11.366;2022-11-15T05:22:40;1.40;99.90
8043;DHT22;4064;48.132;11.366;2022-11-15T05:25:07;1.20;99.90
8043;DHT22;4064;48.132;11.366;2022-11-15T05:27:34;1.20;99.90
8043;DHT22;4064;48.132;11.366;2022-11-15T05:29:59;1.30;99.90
8043;DHT22;4064;48.132;11.366;2022-11-15T05:32:25;1.30;99.90
8043;DHT22;4064;48.132;11.366;2022-11-15T05:34:52;1.30;99.90
8043;DHT22;4064;48.132;11.366;2022-11-15T05:37:18;1.30;99.90
8043;DHT22;4064;48.132;11.366;2022-11-15T05:39:43;1.30;99.90
8043;DHT22;4064;48.132;11.366;2022-11-15T05:42:11;1.40;99.90
8043;DHT22;4064;48.132;11.366;2022-11-15T05:44:40;1.40;99.90
8043;DHT22;4064;48.132;11.366;2022-11-15T05:47:09;1.40;99.90
8043;DHT22;4064;48.132;11.366;2022-11-15T05:49:38;1.40;99.90
8043;DHT22;4064;48.132;11.366;2022-11-15T05:52:07;1.20;99.90
8043;DHT22;4064;48.132;11.366;2022-11-15T05:54:36;1.10;99.90
8043;DHT22;4064;48.132;11.366;2022-11-15T05:57:04;1.10;99.90
8043;DHT22;4064;48.132;11.366;2022-11-15T05:59:31;1.10;99.90
8043;DHT22;4064;48.132;11.366;2022-11-15T06:01:57;1.20;99.90
8043;DHT22;4064;48.132;11.366;2022-11-15T06:04:23;1.10;99.90
8043;DHT22;4064;48.132;11.366;2022-11-15T06:06:49;1.00;99.90
8043;DHT22;4064;48.132;11.366;2022-11-15T06:09:15;1.10;99.90
8043;DHT22;4064;48.132;11.366;2022-11-15T06:11:40;1.10;99.90
8043;DHT22;4064;48.132;11.366;2022-11-15T06:14:06;1.10;99.90
8043;DHT22;4064;48.132;11.366;2022-11-15T06:16:32;1.20;99.90
8043;DHT22;4064;48.132;11.366;2022-11-15T06:18:58;1.10;99.90
8043;DHT22;4064;48.132;11.366;2022-11-15T06:21:24;1.20;99.90
8043;DHT22;4064;48.132;11.366;2022-11-15T06:23:49;1.10;99.90
8043;DHT22;4064;48.132;11.366;2022-11-15T06:26:15;1.10;99.90
8043;DHT22;4064;48.132;11.366;2022-11-15T06:28:41;1.00;99.90
8043;DHT22;4064;48.132;11.366;2022-11-15T06:31:10;0.90;99.90
8043;DHT22;4064;48.132;11.366;2022-11-15T06:33:39;1.00;99.90
8043;DHT22;4064;48.132;11.366;2022-11-15T06:36:11;1.00;99.90
8043;DHT22;4064;48.132;11.366;2022-11-15T06:38:39;1.10;99.90
8043;DHT22;4064;48.132;11.366;2022-11-15T06:41:07;1.10;99.90
8043;DHT22;4064;48.132;11.366;2022-11-15T06:43:34;1.20;99.90
8043;DHT22;4064;48.132;11.366;2022-11-15T06:46:01;1.20;99.90
8043;DHT22;4064;48.132;11.366;2022-11-15T06:48:28;1.10;99.90
8043;DHT22;4064;48.132;11.366;2022-11-15T06:50:55;1.20;99.90
8043;DHT22;4064;48.132;11.366;2022-11-15T06:53:21;1.20;99.90
8043;DHT22;4064;48.132;11.366;2022-11-15T06:55:47;1.20;99.90
8043;DHT22;4064;48.132;11.366;2022-11-15T06:58:13;1.20;99.90
8043;DHT22;4064;48.132;11.366;2022-11-15T07:00:39;1.20;99.90
8043;DHT22;4064;48.132;11.366;2022-11-15T07:03:04;1.30;99.90
8043;DHT22;4064;48.132;11.366;2022-11-15T07:05:30;1.40;99.90
8043;DHT22;4064;48.132;11.366;2022-11-15T07:07:57;1.40;99.90
8043;DHT22;4064;48.132;11.366;2022-11-15T07:10:24;1.50;99.90
8043;DHT22;4064;48.132;11.366;2022-11-15T07:12:51;1.50;99.90
8043;DHT22;4064;48.132;11.366;2022-11-15T07:15:18;1.60;99.90
8043;DHT22;4064;48.132;11.366;2022-11-15T07:17:43;1.60;99.90
8043;DHT22;4064;48.132;11.366;2022-11-15T07:20:10;1.70;99.90
8043;DHT22;4064;48.132;11.366;2022-11-15T07:22:36;1.70;99.90
8043;DHT22;4064;48.132;11.366;2022-11-15T07:25:02;1.70;99.90
8043;DHT22;4064;48.132;11.366;2022-11-15T07:27:28;1.80;99.90
8043;DHT22;4064;48.132;11.366;2022-11-15T07:29:54;1.80;99.90
8043;DHT22;4064;48.132;11.366;2022-11-15T07:32:20;1.90;99.90
8043;DHT22;4064;48.132;11.366;2022-11-15T07:34:45;1.90;99.90
8043;DHT22;4064;48.132;11.366;2022-11-15T07:37:12;2.00;99.90
8043;DHT22;4064;48.132;11.366;2022-11-15T07:39:37;2.10;99.90
8043;DHT22;4064;48.132;11.366;2022-11-15T07:42:03;2.20;99.90
8043;DHT22;4064;48.132;11.366;2022-11-15T07:44:48;2.30;99.90
8043;DHT22;4064;48.132;11.366;2022-11-15T07:47:13;2.40;99.90
8043;DHT22;4064;48.132;11.366;2022-11-15T07:49:39;2.50;99.90
8043;DHT22;4064;48.132;11.366;2022-11-15T07:52:05;2.70;99.90
8043;DHT22;4064;48.132;11.366;2022-11-15T07:54:31;2.80;99.90
8043;DHT22;4064;48.132;11.366;2022-11-15T07:56:57;3.00;99.90
8043;DHT22;4064;48.132;11.366;2022-11-15T07:59:22;3.20;99.90
8043;DHT22;4064;48.132;11.366;2022-11-15T08:01:48;3.30;99.90
8043;DHT22;4064;48.132;11.366;2022-11-15T08:04:14;3.50;99.90
8043;DHT22;4064;48.132;11.366;2022-11-15T08:06:40;3.60;99.90
8043;DHT22;4064;48.132;11.366;2022-11-15T08:09:05;3.80;99.90
8043;DHT22;4064;48.132;11.366;2022-11-15T08:11:31;3.90;99.90
8043;DHT22;4064;48.132;11.366;2022-11-15T08:13:58;4.10;99.90
8043;DHT22;4064;48.132;11.366;2022-11-15T08:16:24;4.20;99.90
8043;DHT22;4064;48.132;11.366;2022-11-15T08:18:50;4.40;99.90
8043;DHT22;4064;48.132;11.366;2022-11-15T08:21:19;4.50;99.90
8043;DHT22;4064;48.132;11.366;2022-11-15T08:23:45;4.70;99.90
8043;DHT22;4064;48.132;11.366;2022-11-15T08:26:11;5.50;99.90
8043;DHT22;4064;48.132;11.366;2022-11-15T08:28:38;6.20;99.90
8043;DHT22;4064;48.132;11.366;2022-11-15T08:31:04;7.60;99.90
8043;DHT22;4064;48.132;11.366;2022-11-15T08:33:31;8.80;99.90
8043;DHT22;4064;48.132;11.366;2022-11-15T08:35:57;9.70;99.90
8043;DHT22;4064;48.132;11.366;2022-11-15T08:38:23;11.00;99.90
8043;DHT22;4064;48.132;11.366;2022-11-15T08:40:53;11.90;99.90
8043;DHT22;4064;48.132;11.366;2022-11-15T08:43:23;12.70;99.90
8043;DHT22;4064;48.132;11.366;2022-11-15T08:45:49;13.50;99.90
8043;DHT22;4064;48.132;11.366;2022-11-15T08:48:15;13.50;99.00
8043;DHT22;4064;48.132;11.366;2022-11-15T08:50:41;13.90;99.00
8043;DHT22;4064;48.132;11.366;2022-11-15T08:53:09;14.20;97.60
8043;DHT22;4064;48.132;11.366;2022-11-15T08:55:39;14.40;95.70
8043;DHT22;4064;48.132;11.366;2022-11-15T08:58:05;14.10;94.20
8043;DHT22;4064;48.132;11.366;2022-11-15T09:00:32;13.50;95.00
8043;DHT22;4064;48.132;11.366;2022-11-15T09:02:57;14.20;95.80
8043;DHT22;4064;48.132;11.366;2022-11-15T09:05:25;14.60;93.30
8043;DHT22;4064;48.132;11.366;2022-11-15T09:07:54;14.10;92.30
8043;DHT22;4064;48.132;11.366;2022-11-15T09:10:21;13.40;93.20
8043;DHT22;4064;48.132;11.366;2022-11-15T09:12:47;13.40;94.20
8043;DHT22;4064;48.132;11.366;2022-11-15T09:15:16;13.70;93.00
8043;DHT22;4064;48.132;11.366;2022-11-15T09:17:42;13.70;92.30
8043;DHT22;4064;48.132;11.366;2022-11-15T09:20:08;13.80;93.00
8043;DHT22;4064;48.132;11.366;2022-11-15T09:22:34;13.90;91.40
8043;DHT22;4064;48.132;11.366;2022-11-15T09:25:05;14.00;91.70
8043;DHT22;4064;48.132;11.366;2022-11-15T09:27:31;14.20;90.70
8043;DHT22;4064;48.132;11.366;2022-11-15T09:29:57;14.00;90.70
8043;DHT22;4064;48.132;11.366;2022-11-15T09:32:23;13.80;91.60
8043;DHT22;4064;48.132;11.366;2022-11-15T09:34:52;13.50;91.70
8043;DHT22;4064;48.132;11.366;2022-11-15T09:37:17;13.20;92.30
8043;DHT22;4064;48.132;11.366;2022-11-15T09:39:43;13.00;92.60
8043;DHT22;4064;48.132;11.366;2022-11-15T09:42:22;13.00;93.30
8043;DHT22;4064;48.132;11.366;2022-11-15T09:50:43;12.90;92.40
8043;DHT22;4064;48.132;11.366;2022-11-15T09:53:15;13.50;92.40
8043;DHT22;4064;48.132;11.366;2022-11-15T09:56:00;13.80;91.60
8043;DHT22;4064;48.132;11.366;2022-11-15T10:01:20;13.70;90.50
8043;DHT22;4064;48.132;11.366;2022-11-15T10:03:48;13.50;90.80
8043;DHT22;4064;48.132;11.366;2022-11-15T10:06:23;13.20;90.60
8043;DHT22;4064;48.132;11.366;2022-11-15T10:09:01;13.00;90.40
8043;DHT22;4064;48.132;11.366;2022-11-15T10:11:32;12.90;90.90
8043;DHT22;4064;48.132;11.366;2022-11-15T10:14:09;12.80;91.30
8043;DHT22;4064;48.132;11.366;2022-11-15T10:22:25;12.80;92.00
8043;DHT22;4064;48.132;11.366;2022-11-15T10:27:29;12.80;92.10
8043;DHT22;4064;48.132;11.366;2022-11-15T10:29:55;12.70;91.90
8043;DHT22;4064;48.132;11.366;2022-11-15T10:32:21;12.70;91.40
8043;DHT22;4064;48.132;11.366;2022-11-15T10:34:48;12.80;91.10
8043;DHT22;4064;48.132;11.366;2022-11-15T10:37:15;12.80;91.40
8043;DHT22;4064;48.132;11.366;2022-11-15T10:40:16;12.80;91.10
8043;DHT22;4064;48.132;11.366;2022-11-15T10:43:17;12.80;91.60
8043;DHT22;4064;48.132;11.366;2022-11-15T10:45:43;12.80;91.00
8043;DHT22;4064;48.132;11.366;2022-11-15T10:50:40;12.90;91.30
8043;DHT22;4064;48.132;11.366;2022-11-15T10:53:23;12.90;92.00
8043;DHT22;4064;48.132;11.366;2022-11-15T10:55:55;12.90;91.90
8043;DHT22;4064;48.132;11.366;2022-11-15T10:58:36;12.90;92.10
8043;DHT22;4064;48.132;11.366;2022-11-15T11:03:37;12.90;92.00
8043;DHT22;4064;48.132;11.366;2022-11-15T11:06:14;12.90;92.30
8043;DHT22;4064;48.132;11.366;2022-11-15T11:08:52;12.90;92.30
8043;DHT22;4064;48.132;11.366;2022-11-15T11:11:18;12.90;91.90
8043;DHT22;4064;48.132;11.366;2022-11-15T11:13:44;12.90;91.80
8043;DHT22;4064;48.132;11.366;2022-11-15T11:19:15;12.90;92.60
8043;DHT22;4064;48.132;11.366;2022-11-15T11:32:34;13.00;93.30
8043;DHT22;4064;48.132;11.366;2022-11-15T11:40:32;13.20;93.70
8043;DHT22;4064;48.132;11.366;2022-11-15T11:43:13;13.30;94.00
8043;DHT22;4064;48.132;11.366;2022-11-15T11:49:14;13.40;92.20
8043;DHT22;4064;48.132;11.366;2022-11-15T11:51:58;13.70;94.40
8043;DHT22;4064;48.132;11.366;2022-11-15T11:54:37;13.90;92.40
8043;DHT22;4064;48.132;11.366;2022-11-15T11:57:12;14.00;91.80
8043;DHT22;4064;48.132;11.366;2022-11-15T11:59:44;14.10;91.50
8043;DHT22;4064;48.132;11.366;2022-11-15T12:02:41;14.30;90.40
8043;DHT22;4064;48.132;11.366;2022-11-15T12:05:19;14.50;88.40
8043;DHT22;4064;48.132;11.366;2022-11-15T12:07:47;14.70;86.30
8043;DHT22;4064;48.132;11.366;2022-11-15T12:10:25;14.90;82.90
8043;DHT22;4064;48.132;11.366;2022-11-15T12:13:04;15.00;83.60
8043;DHT22;4064;48.132;11.366;2022-11-15T12:18:18;15.50;82.90
8043;DHT22;4064;48.132;11.366;2022-11-15T12:20:55;15.60;79.40
8043;DHT22;4064;48.132;11.366;2022-11-15T12:23:28;15.80;79.90
8043;DHT22;4064;48.132;11.366;2022-11-15T12:26:05;15.90;77.00
8043;DHT22;4064;48.132;11.366;2022-11-15T12:31:26;16.10;73.70
8043;DHT22;4064;48.132;11.366;2022-11-15T12:33:49;16.30;75.20
8043;DHT22;4064;48.132;11.366;2022-11-15T12:38:58;16.30;71.80
8043;DHT22;4064;48.132;11.366;2022-11-15T12:41:29;16.40;69.30
8043;DHT22;4064;48.132;11.366;2022-11-15T12:43:56;16.60;69.50
8043;DHT22;4064;48.132;11.366;2022-11-15T13:00:00;17.10;64.90
8043;DHT22;4064;48.132;11.366;2022-11-15T13:02:36;17.00;65.70
8043;DHT22;4064;48.132;11.366;2022-11-15T13:17:53;16.00;65.40
8043;DHT22;4064;48.132;11.366;2022-11-15T13:22:51;15.80;66.10
8043;DHT22;4064;48.132;11.366;2022-11-15T13:30:50;15.20;66.40
8043;DHT22;4064;48.132;11.366;2022-11-15T13:33:20;15.10;68.50
8043;DHT22;4064;48.132;11.366;2022-11-15T13:35:48;14.90;69.60
8043;DHT22;4064;48.132;11.366;2022-11-15T13:38:27;14.60;69.80
8043;DHT22;4064;48.132;11.366;2022-11-15T13:40:53;14.50;69.70
8043;DHT22;4064;48.132;11.366;2022-11-15T13:46:16;14.20;70.20
8043;DHT22;4064;48.132;11.366;2022-11-15T13:48:44;14.10;70.90
8043;DHT22;4064;48.132;11.366;2022-11-15T13:51:30;14.00;70.70
8043;DHT22;4064;48.132;11.366;2022-11-15T13:54:09;13.80;70.90
8043;DHT22;4064;48.132;11.366;2022-11-15T13:56:41;13.70;70.00
8043;DHT22;4064;48.132;11.366;2022-11-15T13:59:27;13.60;71.90
8043;DHT22;4064;48.132;11.366;2022-11-15T14:01:56;13.50;73.80
8043;DHT22;4064;48.132;11.366;2022-11-15T14:04:24;13.40;74.70
8043;DHT22;4064;48.132;11.366;2022-11-15T14:06:57;13.30;73.60
8043;DHT22;4064;48.132;11.366;2022-11-15T14:09:33;13.30;75.70
8043;DHT22;4064;48.132;11.366;2022-11-15T14:12:00;13.20;73.30
8043;DHT22;4064;48.132;11.366;2022-11-15T14:14:28;13.20;74.90
8043;DHT22;4064;48.132;11.366;2022-11-15T14:16:57;13.10;76.20
8043;DHT22;4064;48.132;11.366;2022-11-15T14:22:12;12.80;78.40
8043;DHT22;4064;48.132;11.366;2022-11-15T14:24:39;12.70;80.50
8043;DHT22;4064;48.132;11.366;2022-11-15T14:27:34;12.60;80.80
8043;DHT22;4064;48.132;11.366;2022-11-15T14:30:00;12.60;82.80
8043;DHT22;4064;48.132;11.366;2022-11-15T14:32:46;12.50;83.70
8043;DHT22;4064;48.132;11.366;2022-11-15T14:35:18;12.40;85.00
8043;DHT22;4064;48.132;11.366;2022-11-15T14:37:45;12.20;85.80
8043;DHT22;4064;48.132;11.366;2022-11-15T14:40:16;12.10;86.90
8043;DHT22;4064;48.132;11.366;2022-11-15T14:42:45;12.00;87.80
8043;DHT22;4064;48.132;11.366;2022-11-15T14:45:19;11.90;89.00
8043;DHT22;4064;48.132;11.366;2022-11-15T14:47:46;11.70;90.50
8043;DHT22;4064;48.132;11.366;2022-11-15T14:50:17;11.60;90.90
8043;DHT22;4064;48.132;11.366;2022-11-15T14:52:44;11.50;91.50
8043;DHT22;4064;48.132;11.366;2022-11-15T14:55:46;11.40;92.20
8043;DHT22;4064;48.132;11.366;2022-11-15T14:58:06;11.20;92.80
8043;DHT22;4064;48.132;11.366;2022-11-15T15:00:36;11.10;93.30
8043;DHT22;4064;48.132;11.366;2022-11-15T15:03:20;11.00;93.80
8043;DHT22;4064;48.132;11.366;2022-11-15T15:05:45;10.80;94.30
8043;DHT22;4064;48.132;11.366;2022-11-15T15:08:11;10.70;95.10
8043;DHT22;4064;48.132;11.366;2022-11-15T15:10:45;10.50;95.60
8043;DHT22;4064;48.132;11.366;2022-11-15T15:13:22;10.40;96.20
8043;DHT22;4064;48.132;11.366;2022-11-15T15:15:49;10.30;96.90
8043;DHT22;4064;48.132;11.366;2022-11-15T15:18:15;10.20;97.40
8043;DHT22;4064;48.132;11.366;2022-11-15T15:20:42;10.00;97.90
8043;DHT22;4064;48.132;11.366;2022-11-15T15:23:19;9.90;99.20
8043;DHT22;4064;48.132;11.366;2022-11-15T15:25:46;9.80;99.80
8043;DHT22;4064;48.132;11.366;2022-11-15T15:28:13;9.60;99.90
8043;DHT22;4064;48.132;11.366;2022-11-15T15:30:38;9.50;99.90
8043;DHT22;4064;48.132;11.366;2022-11-15T15:33:04;9.40;99.90
8043;DHT22;4064;48.132;11.366;2022-11-15T15:35:32;9.30;99.90
8043;DHT22;4064;48.132;11.366;2022-11-15T15:37:58;9.20;99.90
8043;DHT22;4064;48.132;11.366;2022-11-15T15:40:25;9.10;99.90
8043;DHT22;4064;48.132;11.366;2022-11-15T15:42:51;9.00;99.90
8043;DHT22;4064;48.132;11.366;2022-11-15T15:45:17;8.90;99.90
8043;DHT22;4064;48.132;11.366;2022-11-15T15:47:44;8.80;99.90
8043;DHT22;4064;48.132;11.366;2022-11-15T15:50:27;8.80;99.90
8043;DHT22;4064;48.132;11.366;2022-11-15T15:52:57;8.70;99.90
8043;DHT22;4064;48.132;11.366;2022-11-15T15:55:23;8.60;99.90
8043;DHT22;4064;48.132;11.366;2022-11-15T15:57:50;8.60;99.90
8043;DHT22;4064;48.132;11.366;2022-11-15T16:00:17;8.50;99.90
8043;DHT22;4064;48.132;11.366;2022-11-15T16:02:42;8.50;99.90
8043;DHT22;4064;48.132;11.366;2022-11-15T16:05:09;8.50;99.90
8043;DHT22;4064;48.132;11.366;2022-11-15T16:07:35;8.40;99.90
8043;DHT22;4064;48.132;11.366;2022-11-15T16:10:03;8.40;99.90
8043;DHT22;4064;48.132;11.366;2022-11-15T16:12:38;8.40;99.90
8043;DHT22;4064;48.132;11.366;2022-11-15T16:15:04;8.30;99.90
8043;DHT22;4064;48.132;11.366;2022-11-15T16:17:34;8.30;99.90
8043;DHT22;4064;48.132;11.366;2022-11-15T16:20:01;8.30;99.90
8043;DHT22;4064;48.132;11.366;2022-11-15T16:22:28;8.30;99.90
8043;DHT22;4064;48.132;11.366;2022-11-15T16:24:54;8.20;99.90
8043;DHT22;4064;48.132;11.366;2022-11-15T16:27:21;8.20;99.90
8043;DHT22;4064;48.132;11.366;2022-11-15T16:29:47;8.20;99.90
8043;DHT22;4064;48.132;11.366;2022-11-15T16:32:14;8.10;99.90
8043;DHT22;4064;48.132;11.366;2022-11-15T16:34:40;8.10;99.90
8043;DHT22;4064;48.132;11.366;2022-11-15T16:37:08;8.00;99.90
8043;DHT22;4064;48.132;11.366;2022-11-15T16:39:34;8.00;99.90
8043;DHT22;4064;48.132;11.366;2022-11-15T16:41:59;7.90;99.90
8043;DHT22;4064;48.132;11.366;2022-11-15T16:44:25;7.80;99.90
8043;DHT22;4064;48.132;11.366;2022-11-15T16:46:51;7.90;99.90
8043;DHT22;4064;48.132;11.366;2022-11-15T16:49:19;7.80;99.90
8043;DHT22;4064;48.132;11.366;2022-11-15T16:51:46;7.80;99.90
8043;DHT22;4064;48.132;11.366;2022-11-15T16:54:12;7.70;99.90
8043;DHT22;4064;48.132;11.366;2022-11-15T16:56:39;7.60;99.90
8043;DHT22;4064;48.132;11.366;2022-11-15T16:59:05;7.60;99.90
8043;DHT22;4064;48.132;11.366;2022-11-15T17:01:33;7.60;99.90
8043;DHT22;4064;48.132;11.366;2022-11-15T17:04:13;7.60;99.90
8043;DHT22;4064;48.132;11.366;2022-11-15T17:06:42;7.50;99.90
8043;DHT22;4064;48.132;11.366;2022-11-15T17:09:21;7.50;99.90
8043;DHT22;4064;48.132;11.366;2022-11-15T17:11:52;7.50;99.90
8043;DHT22;4064;48.132;11.366;2022-11-15T17:14:19;7.50;99.90
8043;DHT22;4064;48.132;11.366;2022-11-15T17:16:46;7.50;99.90
8043;DHT22;4064;48.132;11.366;2022-11-15T17:19:18;7.40;99.90
8043;DHT22;4064;48.132;11.366;2022-11-15T17:21:45;7.40;99.90
8043;DHT22;4064;48.132;11.366;2022-11-15T17:24:11;7.40;99.90
8043;DHT22;4064;48.132;11.366;2022-11-15T17:26:38;7.40;99.90
8043;DHT22;4064;48.132;11.366;2022-11-15T17:29:04;7.40;99.90
8043;DHT22;4064;48.132;11.366;2022-11-15T17:31:35;7.40;99.90
8043;DHT22;4064;48.132;11.366;2022-11-15T17:34:03;7.40;99.90
8043;DHT22;4064;48.132;11.366;2022-11-15T17:36:29;7.40;99.90
8043;DHT22;4064;48.132;11.366;2022-11-15T17:38:56;7.50;99.90
8043;DHT22;4064;48.132;11.366;2022-11-15T17:41:21;7.50;99.90
8043;DHT22;4064;48.132;11.366;2022-11-15T17:43:47;7.50;99.90
8043;DHT22;4064;48.132;11.366;2022-11-15T17:46:18;7.50;99.90
8043;DHT22;4064;48.132;11.366;2022-11-15T17:48:45;7.40;99.90
8043;DHT22;4064;48.132;11.366;2022-11-15T17:51:13;7.40;99.90
8043;DHT22;4064;48.132;11.366;2022-11-15T17:53:41;7.30;99.90
8043;DHT22;4064;48.132;11.366;2022-11-15T17:56:10;7.30;99.90
8043;DHT22;4064;48.132;11.366;2022-11-15T17:58:36;7.20;99.90
8043;DHT22;4064;48.132;11.366;2022-11-15T18:01:30;7.10;99.90
8043;DHT22;4064;48.132;11.366;2022-11-15T18:03:57;7.00;99.90
8043;DHT22;4064;48.132;11.366;2022-11-15T18:06:25;7.00;99.90